Pagrindinis puslapis
METAR-TAF:

METAR-TAF

Oro uostai :

Kunėjas, Italija

platuma: 44-32-47N, ilguma: 007-37-20E, Aukštis: 386 m

Dabartinis oras

Ataskaita buvo paskelbta 4 valandos ir 37 minutes, ne 18:50 UTC
Vėjas 1 kt nuo kintamojo kryptimis
Temperatūra 14°C
Drėgmė 51%
Slėgis 1027 hPa
Matomumas 10 km arba daugiau
nėra debesų žemiau 1500 m ir nėra kamuolinių lietaus debesų

METAR: LIMZ 071850Z VRB01KT CAVOK 14/04 Q1027

Laikas: 01:27 (23:27 UTC)

Prognozė

Ataskaita buvo paskelbta 6 valandos ir 27 minutes, ne 17:00 UTC
Prognozė galioja nuo 07 metu 18 UTC su 08 metu 18 UTC
Vėjas 5 kt nuo kintamojo kryptimis
Matomumas 10 km arba daugiau
nėra debesų žemiau 1500 m ir nėra kamuolinių lietaus debesų

TAF: LIMZ 071700Z 0718/0818 VRB05KT CAVOK

Orai ataskaitas ir orų prognozės (METAR, TAF).

turimą stotys yra geltonos ir raudonos taškus žemėlapyje.

Perkelti pele per norėdami pamatyti stoties vardą.

Tada spustelėkite, norėdami matyti oro stebėjimo ir prognozės.

Norėdami pakeisti žemėlapį: spustelėkite ant žalios mygtukų su juodo kryžiaus žemyn,; žalią mygtuką su brūkšneliu, jei norite nutolinti; arba žalių rodyklių gretimoms žemėlapius.


METAR-TAF: